Acme, Washington
Current Conditions -  °F | °C
As of 12:53 AM on Thursday 23 Oct 2014 (Local Time) from KBLI Reporting Station
Light Rain Light Rain  
Wind Chill: 12°   Ceiling: 4000
Heat Index: 12°   Visibility: 10mi
Dew Point: 10°   Wind: 3mph
Humidity: 86%   Direction: NA
Pressure: 29.65"   Gusts: NA
Location:  48.72°N, 122.21°W
Report Text: KBLI 230753Z VRB03KT 10SM -RA BKN040 BKN060 OVC070 12/10 A2965 RMK AO2 RAB35 PRESRR SLP048 P0002 T01220100 401670122
Loading
Personal Weather Stations






























Interactive Weather Map
Tropical Storm Tracking
New forecast layout! Learn more

10-Day Weather Forecast

Advertisements
Track Severe Weather on mobile